Time;durP1;ratioP1;P1;durP2;ratioP2;P2;SDS_P1;SDS_P2;PMS_P1;PMS_P2;Temp;Humidity;BMP_temperature;BMP_pressure;BME280_temperature;BME280_humidity;BME280_pressure;Samples;Min_cycle;Max_cycle;Signal;HPM_P1;HPM_P2
2021/06/23 00:03:33;;;;;;;7.10;1.57;;;;;;;;;;10292092;28;20033;-67
2021/06/23 00:08:31;;;;;;;4.50;1.43;;;;;;;;;;10284606;28;20394;-67
2021/06/23 00:13:32;;;;;;;4.37;1.17;;;;;;;;;;10301439;28;20066;-67
2021/06/23 00:18:29;;;;;;;4.20;1.20;;;;;;;;;;10282043;28;20022;-66
2021/06/23 00:23:27;;;;;;;5.87;1.57;;;;;;;;;;10302066;28;20480;-67
2021/06/23 00:28:26;;;;;;;6.03;1.30;;;;;;;;;;10244943;28;20096;-67
2021/06/23 00:33:29;;;;;;;3.73;1.47;;;;;;;;;;10227656;28;20473;-67
2021/06/23 00:38:26;;;;;;;5.82;1.50;;;;;;;;;;10231158;28;20034;-66
2021/06/23 00:43:25;;;;;;;3.65;1.15;;;;;;;;;;10249693;28;20034;-66
2021/06/23 00:48:28;;;;;;;5.00;1.30;;;;;;;;;;10252401;28;20056;-67
2021/06/23 00:53:28;;;;;;;6.38;1.60;;;;;;;;;;10244512;28;20133;-66
2021/06/23 00:58:26;;;;;;;4.72;1.30;;;;;;;;;;10248986;28;20040;-67
2021/06/23 01:03:24;;;;;;;;;;;;;;;;;;10206483;28;20081;-67
2021/06/23 01:08:32;;;;;;;7.22;2.45;;;;;;;;;;10239130;28;20035;-67
2021/06/23 01:13:33;;;;;;;4.70;1.70;;;;;;;;;;10227002;28;20152;-66
2021/06/23 01:18:35;;;;;;;5.68;1.77;;;;;;;;;;10271885;28;20030;-66
2021/06/23 01:23:34;;;;;;;5.72;1.50;;;;;;;;;;10266233;28;20027;-67
2021/06/23 01:28:32;;;;;;;;;;;;;;;;;;10251507;28;20150;-67
2021/06/23 01:33:43;;;;;;;5.97;1.55;;;;;;;;;;10236504;28;19953;-65
2021/06/23 01:38:41;;;;;;;8.63;1.98;;;;;;;;;;10240257;28;20180;-66
2021/06/23 01:43:42;;;;;;;8.40;2.25;;;;;;;;;;10263548;28;20055;-67
2021/06/23 01:48:40;;;;;;;8.00;2.30;;;;;;;;;;10250750;28;20558;-67
2021/06/23 01:53:40;;;;;;;8.63;2.45;;;;;;;;;;10242687;28;20033;-67
2021/06/23 01:58:40;;;;;;;10.70;2.15;;;;;;;;;;10266621;28;20057;-67
2021/06/23 02:03:57;;;;;;;;;;;;;;;;;;10225672;28;20046;-67
2021/06/23 02:09:06;;;;;;;9.23;2.38;;;;;;;;;;10278442;28;19913;-66
2021/06/23 02:14:20;;;;;;;8.68;1.95;;;;;;;;;;10249518;28;20031;-66
2021/06/23 02:19:45;;;;;;;11.02;2.90;;;;;;;;;;10253478;28;20045;-66
2021/06/23 02:24:48;;;;;;;7.55;2.47;;;;;;;;;;10256406;28;20080;-66
2021/06/23 02:30:01;;;;;;;7.72;2.17;;;;;;;;;;10241226;28;20082;-66
2021/06/23 02:35:04;;;;;;;10.25;2.83;;;;;;;;;;10250827;28;20068;-67
2021/06/23 02:40:09;;;;;;;7.97;2.33;;;;;;;;;;10255707;28;20457;-66
2021/06/23 02:45:12;;;;;;;10.45;3.22;;;;;;;;;;10237087;28;20129;-67
2021/06/23 02:50:10;;;;;;;7.82;2.50;;;;;;;;;;10222483;28;20062;-67
2021/06/23 02:55:28;;;;;;;8.25;3.03;;;;;;;;;;10248259;28;20061;-67
2021/06/23 03:00:26;;;;;;;6.53;1.85;;;;;;;;;;10239121;28;20421;-66
2021/06/23 03:05:24;;;;;;;9.75;2.53;;;;;;;;;;10240250;28;20034;-67
2021/06/23 03:10:21;;;;;;;7.40;2.67;;;;;;;;;;10237570;28;20038;-67
2021/06/23 03:15:41;;;;;;;10.48;2.45;;;;;;;;;;10231390;28;20037;-67
2021/06/23 03:20:54;;;;;;;7.05;2.35;;;;;;;;;;10248954;28;20488;-67
2021/06/23 03:25:52;;;;;;;6.87;1.93;;;;;;;;;;10235843;28;20391;-68
2021/06/23 03:30:49;;;;;;;8.10;3.00;;;;;;;;;;10246720;28;20442;-67
2021/06/23 03:35:47;;;;;;;4.68;2.40;;;;;;;;;;10235450;28;20034;-67
2021/06/23 03:40:45;;;;;;;4.43;2.03;;;;;;;;;;10246901;28;20121;-67
2021/06/23 03:45:44;;;;;;;9.57;2.60;;;;;;;;;;10238279;28;20492;-67
2021/06/23 03:50:44;;;;;;;8.93;2.63;;;;;;;;;;10246780;28;20393;-67
2021/06/23 03:55:43;;;;;;;7.10;2.63;;;;;;;;;;10235197;28;20124;-67
2021/06/23 04:00:40;;;;;;;8.40;2.57;;;;;;;;;;10223933;28;20098;-67
2021/06/23 04:06:01;;;;;;;9.80;2.40;;;;;;;;;;10240671;28;20026;-67
2021/06/23 04:10:58;;;;;;;9.53;2.67;;;;;;;;;;10228140;28;20038;-67
2021/06/23 04:15:56;;;;;;;7.47;2.88;;;;;;;;;;10260075;28;20057;-67
2021/06/23 04:20:54;;;;;;;10.38;2.90;;;;;;;;;;10244111;28;20042;-68
2021/06/23 04:25:53;;;;;;;9.88;2.20;;;;;;;;;;10220199;28;20121;-66
2021/06/23 04:30:50;;;;;;;9.23;2.30;;;;;;;;;;10224056;28;20125;-67
2021/06/23 04:35:49;;;;;;;10.55;2.42;;;;;;;;;;10236758;28;20381;-67
2021/06/23 04:40:48;;;;;;;9.25;3.00;;;;;;;;;;10250980;28;20538;-67
2021/06/23 04:45:46;;;;;;;9.88;2.58;;;;;;;;;;10256444;28;20049;-66
2021/06/23 04:50:44;;;;;;;9.90;2.83;;;;;;;;;;10253598;28;20049;-67
2021/06/23 04:55:55;;;;;;;8.80;2.40;;;;;;;;;;10232999;28;20057;-67
2021/06/23 05:00:55;;;;;;;7.30;2.20;;;;;;;;;;10253332;28;20042;-67
2021/06/23 05:06:05;;;;;;;9.40;2.45;;;;;;;;;;10255011;28;20069;-67
2021/06/23 05:11:03;;;;;;;6.00;2.23;;;;;;;;;;10257878;28;20034;-68
2021/06/23 05:16:00;;;;;;;8.70;2.27;;;;;;;;;;10249458;28;20042;-67
2021/06/23 05:20:58;;;;;;;5.40;1.90;;;;;;;;;;10242699;28;20642;-67
2021/06/23 05:25:56;;;;;;;5.20;2.05;;;;;;;;;;10244826;28;20045;-67
2021/06/23 05:30:53;;;;;;;8.87;2.17;;;;;;;;;;10253141;28;20136;-67
2021/06/23 05:35:51;;;;;;;8.87;2.33;;;;;;;;;;10243994;28;20118;-67
2021/06/23 05:40:48;;;;;;;7.90;2.27;;;;;;;;;;10275655;28;20095;-66
2021/06/23 05:45:46;;;;;;;7.07;2.30;;;;;;;;;;10255747;28;20046;-67
2021/06/23 05:50:45;;;;;;;9.20;2.30;;;;;;;;;;10242653;28;20053;-66
2021/06/23 05:55:42;;;;;;;6.30;1.98;;;;;;;;;;10218158;28;20044;-67
2021/06/23 06:00:40;;;;;;;8.40;2.27;;;;;;;;;;10232833;28;20033;-67
2021/06/23 06:05:37;;;;;;;7.83;2.53;;;;;;;;;;10237636;28;20060;-68
2021/06/23 06:10:34;;;;;;;8.73;2.37;;;;;;;;;;10242768;28;20041;-68
2021/06/23 06:15:33;;;;;;;8.10;2.40;;;;;;;;;;10240164;28;20037;-68
2021/06/23 06:20:30;;;;;;;4.88;2.33;;;;;;;;;;10241825;28;20037;-68
2021/06/23 06:25:28;;;;;;;11.40;2.58;;;;;;;;;;10239759;28;20628;-67
2021/06/23 06:30:26;;;;;;;10.97;2.60;;;;;;;;;;10235501;28;20046;-67
2021/06/23 06:35:23;;;;;;;8.45;2.58;;;;;;;;;;10226639;28;20092;-67
2021/06/23 06:40:21;;;;;;;11.67;2.83;;;;;;;;;;10234963;28;20449;-68
2021/06/23 06:45:19;;;;;;;10.73;2.73;;;;;;;;;;10237470;28;21110;-67
2021/06/23 06:50:16;;;;;;;11.30;2.70;;;;;;;;;;10228532;28;20428;-67
2021/06/23 06:55:20;;;;;;;11.47;2.43;;;;;;;;;;10229023;28;20061;-66
2021/06/23 07:00:21;;;;;;;9.70;2.65;;;;;;;;;;10223388;28;20393;-68
2021/06/23 07:05:19;;;;;;;7.88;2.20;;;;;;;;;;10234773;28;20132;-68
2021/06/23 07:10:17;;;;;;;5.87;2.37;;;;;;;;;;10225631;28;20133;-67
2021/06/23 07:15:15;;;;;;;10.03;2.70;;;;;;;;;;10234253;28;20056;-67
2021/06/23 07:20:12;;;;;;;10.40;2.53;;;;;;;;;;10226817;28;20413;-67
2021/06/23 07:25:10;;;;;;;8.27;2.20;;;;;;;;;;10227698;28;20996;-68
2021/06/23 07:30:08;;;;;;;8.98;2.33;;;;;;;;;;10239276;28;20564;-67
2021/06/23 07:40:38;;;;;;;7.30;2.38;;;;;;;;;;10229960;28;20113;-68
2021/06/23 07:45:37;;;;;;;6.90;1.92;;;;;;;;;;10239474;28;20080;-67
2021/06/23 07:50:40;;;;;;;8.07;2.33;;;;;;;;;;10241471;28;20491;-67
2021/06/23 07:55:45;;;;;;;9.32;2.17;;;;;;;;;;10234784;28;20042;-67
2021/06/23 08:11:22;;;;;;;7.35;2.80;;;;;;;;;;10234743;28;20084;-67
2021/06/23 08:16:19;;;;;;;8.32;2.58;;;;;;;;;;10230558;28;20128;-67
2021/06/23 08:21:17;;;;;;;7.88;2.20;;;;;;;;;;10229073;28;20133;-67
2021/06/23 08:26:14;;;;;;;5.80;2.73;;;;;;;;;;10233459;28;20077;-67
2021/06/23 08:31:12;;;;;;;8.37;2.40;;;;;;;;;;10242394;28;20037;-67
2021/06/23 08:36:09;;;;;;;5.77;2.23;;;;;;;;;;10233154;28;20213;-67
2021/06/23 08:41:07;;;;;;;5.13;1.80;;;;;;;;;;10240109;28;20033;-68
2021/06/23 08:46:04;;;;;;;9.07;2.30;;;;;;;;;;10240597;28;20072;-68
2021/06/23 08:51:04;;;;;;;9.27;2.07;;;;;;;;;;10233999;28;20088;-68
2021/06/23 08:56:02;;;;;;;6.82;2.05;;;;;;;;;;10237524;28;20042;-67
2021/06/23 09:00:59;;;;;;;;;;;;;;;;;;10252413;28;20213;-68
2021/06/23 09:05:57;;;;;;;8.48;2.30;;;;;;;;;;10240070;28;20111;-68
2021/06/23 09:10:55;;;;;;;6.90;1.90;;;;;;;;;;10234775;28;20060;-67
2021/06/23 09:16:00;;;;;;;9.10;2.27;;;;;;;;;;10234588;28;20146;-66
2021/06/23 09:20:59;;;;;;;3.95;1.60;;;;;;;;;;10227270;28;20030;-67
2021/06/23 09:26:06;;;;;;;6.38;2.13;;;;;;;;;;10229822;28;20185;-67
2021/06/23 09:31:06;;;;;;;4.72;1.95;;;;;;;;;;10222962;28;20160;-68
2021/06/23 09:36:04;;;;;;;6.72;1.92;;;;;;;;;;10237219;28;20192;-67
2021/06/23 09:41:02;;;;;;;4.47;1.73;;;;;;;;;;10243127;28;20066;-67
2021/06/23 09:45:59;;;;;;;6.93;1.90;;;;;;;;;;10240132;28;20042;-67
2021/06/23 09:51:09;;;;;;;5.20;1.53;;;;;;;;;;10242083;28;20029;-67
2021/06/23 09:56:25;;;;;;;3.15;1.70;;;;;;;;;;10240680;28;20048;-66
2021/06/23 10:01:24;;;;;;;5.10;1.60;;;;;;;;;;10245924;28;20530;-67
2021/06/23 10:06:28;;;;;;;4.97;1.80;;;;;;;;;;10246992;28;20505;-66
2021/06/23 10:11:30;;;;;;;3.65;1.50;;;;;;;;;;10238709;28;20464;-67
2021/06/23 10:16:30;;;;;;;6.43;1.48;;;;;;;;;;10236841;28;20057;-66
2021/06/23 10:21:29;;;;;;;8.15;1.77;;;;;;;;;;10241383;28;20042;-67
2021/06/23 10:26:27;;;;;;;3.50;1.30;;;;;;;;;;10242269;28;20096;-66
2021/06/23 10:31:26;;;;;;;4.95;1.42;;;;;;;;;;10243699;28;20037;-67
2021/06/23 10:36:24;;;;;;;2.90;1.30;;;;;;;;;;10240159;28;20516;-68
2021/06/23 10:41:22;;;;;;;5.97;1.40;;;;;;;;;;10238843;28;20397;-65
2021/06/23 10:46:19;;;;;;;;;;;;;;;;;;10242741;28;20105;-65
2021/06/23 10:51:26;;;;;;;3.92;1.60;;;;;;;;;;10243329;28;19928;-65
2021/06/23 10:56:53;;;;;;;4.70;1.48;;;;;;;;;;10260690;28;20064;-66
2021/06/23 11:02:08;;;;;;;5.78;1.80;;;;;;;;;;10232238;28;20045;-66
2021/06/23 11:07:26;;;;;;;3.33;1.40;;;;;;;;;;10245487;28;20113;-65
2021/06/23 11:12:42;;;;;;;3.10;1.35;;;;;;;;;;10241315;28;20052;-65
2021/06/23 11:17:42;;;;;;;4.22;1.25;;;;;;;;;;10243305;28;20377;-65
2021/06/23 11:22:39;;;;;;;5.63;1.77;;;;;;;;;;10230638;28;20061;-66
2021/06/23 11:27:37;;;;;;;3.27;1.47;;;;;;;;;;10238210;28;20049;-66
2021/06/23 11:32:34;;;;;;;3.70;1.37;;;;;;;;;;10249975;28;20038;-65
2021/06/23 11:37:35;;;;;;;5.17;1.73;;;;;;;;;;10238999;28;20372;-65
2021/06/23 11:42:33;;;;;;;4.60;1.52;;;;;;;;;;10236583;28;20320;-66
2021/06/23 11:47:30;;;;;;;2.93;1.17;;;;;;;;;;10240903;28;20054;-65
2021/06/23 11:52:32;;;;;;;3.80;1.42;;;;;;;;;;10244188;28;20814;-65
2021/06/23 11:57:29;;;;;;;6.50;1.70;;;;;;;;;;10228003;28;20065;-66
2021/06/23 12:02:28;;;;;;;4.70;1.50;;;;;;;;;;10239573;28;20034;-66
2021/06/23 12:07:25;;;;;;;4.63;1.60;;;;;;;;;;10247315;28;20041;-66
2021/06/23 12:12:23;;;;;;;2.13;1.20;;;;;;;;;;10244567;28;20048;-66
2021/06/23 12:17:20;;;;;;;6.05;1.77;;;;;;;;;;10241513;28;20038;-66
2021/06/23 12:22:24;;;;;;;4.63;1.47;;;;;;;;;;10241441;28;20444;-66
2021/06/23 12:27:21;;;;;;;3.97;1.50;;;;;;;;;;10249812;28;20072;-66
2021/06/23 12:32:18;;;;;;;2.55;1.30;;;;;;;;;;10246765;28;20118;-66
2021/06/23 12:37:16;;;;;;;2.67;1.30;;;;;;;;;;10229913;28;20034;-66
2021/06/23 12:42:14;;;;;;;4.00;1.33;;;;;;;;;;10240266;28;20118;-66
2021/06/23 12:47:11;;;;;;;5.00;1.47;;;;;;;;;;10266444;28;20445;-66
2021/06/23 12:52:09;;;;;;;3.57;1.60;;;;;;;;;;10247704;28;20489;-66
2021/06/23 12:57:06;;;;;;;3.35;1.23;;;;;;;;;;10252367;28;20300;-66
2021/06/23 13:02:04;;;;;;;4.20;1.58;;;;;;;;;;10243190;28;20087;-66
2021/06/23 13:07:01;;;;;;;4.30;1.50;;;;;;;;;;10249609;28;20025;-66
2021/06/23 13:12:01;;;;;;;3.97;1.25;;;;;;;;;;10264013;28;20042;-66
2021/06/23 13:16:58;;;;;;;5.00;1.45;;;;;;;;;;10257654;28;20029;-67
2021/06/23 13:21:55;;;;;;;4.07;1.47;;;;;;;;;;10251446;28;20044;-67
2021/06/23 13:26:53;;;;;;;3.20;1.43;;;;;;;;;;10268397;28;20635;-67
2021/06/23 13:31:51;;;;;;;3.53;1.45;;;;;;;;;;10266122;28;20292;-67
2021/06/23 13:36:48;;;;;;;5.35;1.55;;;;;;;;;;10255548;28;20404;-67
2021/06/23 13:41:46;;;;;;;3.13;1.30;;;;;;;;;;10260584;28;20538;-67
2021/06/23 13:46:43;;;;;;;4.53;1.45;;;;;;;;;;10266915;28;20269;-67
2021/06/23 13:51:40;;;;;;;3.13;1.30;;;;;;;;;;10257765;28;20125;-67
2021/06/23 13:56:38;;;;;;;3.53;1.60;;;;;;;;;;10246792;28;20214;-66
2021/06/23 14:01:35;;;;;;;2.90;1.30;;;;;;;;;;10253292;28;20029;-67
2021/06/23 14:06:33;;;;;;;5.00;1.80;;;;;;;;;;10251808;28;20022;-66
2021/06/23 14:11:30;;;;;;;3.30;1.55;;;;;;;;;;10238144;28;20808;-67
2021/06/23 14:16:28;;;;;;;3.47;1.30;;;;;;;;;;10261796;28;20056;-67
2021/06/23 14:21:25;;;;;;;4.37;1.50;;;;;;;;;;10253872;28;20354;-66
2021/06/23 14:26:23;;;;;;;5.10;1.83;;;;;;;;;;10267907;28;20307;-66
2021/06/23 14:31:20;;;;;;;3.10;1.50;;;;;;;;;;10263566;28;20061;-66
2021/06/23 14:36:18;;;;;;;2.80;1.52;;;;;;;;;;10252698;28;20048;-66
2021/06/23 14:41:15;;;;;;;2.78;1.45;;;;;;;;;;10237480;28;20034;-66
2021/06/23 14:46:13;;;;;;;5.13;1.63;;;;;;;;;;10247203;28;20033;-67
2021/06/23 14:51:10;;;;;;;1.80;1.20;;;;;;;;;;10259562;28;20038;-66
2021/06/23 14:56:08;;;;;;;6.22;2.03;;;;;;;;;;10259428;28;20280;-66
2021/06/23 15:01:05;;;;;;;3.70;1.30;;;;;;;;;;10246111;28;20558;-66
2021/06/23 15:06:05;;;;;;;2.50;1.10;;;;;;;;;;10256558;28;20073;-66
2021/06/23 15:11:07;;;;;;;3.53;1.30;;;;;;;;;;10247407;28;20037;-66
2021/06/23 15:16:04;;;;;;;5.57;1.88;;;;;;;;;;10245206;28;20033;-66
2021/06/23 15:21:02;;;;;;;4.70;1.52;;;;;;;;;;10255007;28;20083;-66
2021/06/23 15:25:59;;;;;;;3.70;1.63;;;;;;;;;;10248213;28;20052;-66
2021/06/23 15:30:57;;;;;;;4.43;1.90;;;;;;;;;;10247703;28;20408;-66
2021/06/23 15:35:54;;;;;;;4.95;1.50;;;;;;;;;;10246705;28;20041;-66
2021/06/23 15:40:52;;;;;;;3.80;1.50;;;;;;;;;;10246030;28;20048;-66
2021/06/23 15:45:52;;;;;;;4.37;1.63;;;;;;;;;;10250226;28;20081;-66
2021/06/23 15:50:49;;;;;;;2.75;1.50;;;;;;;;;;10235335;28;20361;-66
2021/06/23 15:55:47;;;;;;;5.82;1.98;;;;;;;;;;10258870;28;20121;-66
2021/06/23 16:00:45;;;;;;;4.68;1.55;;;;;;;;;;10246786;28;20417;-65
2021/06/23 16:05:42;;;;;;;5.60;2.30;;;;;;;;;;10256897;28;20121;-66
2021/06/23 16:10:40;;;;;;;74.95;23.40;;;;;;;;;;10250290;28;20029;-66
2021/06/23 16:15:38;;;;;;;103.73;29.37;;;;;;;;;;10253197;28;20400;-66
2021/06/23 16:20:35;;;;;;;62.03;20.48;;;;;;;;;;10253983;28;20335;-66
2021/06/23 16:25:33;;;;;;;68.00;19.40;;;;;;;;;;10246045;28;20428;-66
2021/06/23 16:30:31;;;;;;;49.33;16.27;;;;;;;;;;10242110;28;20041;-66
2021/06/23 16:35:28;;;;;;;44.35;13.07;;;;;;;;;;10240852;28;20038;-66
2021/06/23 16:40:26;;;;;;;32.03;10.60;;;;;;;;;;10240956;28;20542;-66
2021/06/23 16:45:23;;;;;;;29.40;8.63;;;;;;;;;;10238167;28;20042;-66
2021/06/23 16:50:21;;;;;;;22.15;7.47;;;;;;;;;;10241771;28;20040;-66
2021/06/23 16:55:52;;;;;;;20.02;6.45;;;;;;;;;;10246328;28;20294;-66
2021/06/23 17:00:36;;;;;;;13.45;4.93;;;;;;;;;;10245020;28;20547;-66
2021/06/23 17:05:35;;;;;;;14.50;5.13;;;;;;;;;;10252621;28;20427;-66
2021/06/23 17:10:33;;;;;;;10.55;3.72;;;;;;;;;;10232503;28;20077;-66
2021/06/23 17:15:30;;;;;;;9.25;3.78;;;;;;;;;;10244065;28;20732;-66
2021/06/23 17:20:35;;;;;;;8.20;3.85;;;;;;;;;;10278211;28;20829;-66
2021/06/23 17:25:32;;;;;;;9.52;3.25;;;;;;;;;;10243344;28;20030;-65
2021/06/23 17:30:30;;;;;;;7.53;2.90;;;;;;;;;;10229450;28;20042;-66
2021/06/23 17:35:27;;;;;;;6.65;2.47;;;;;;;;;;10247050;28;20089;-65
2021/06/23 17:40:26;;;;;;;6.78;2.30;;;;;;;;;;10250822;28;20041;-65
2021/06/23 17:45:23;;;;;;;6.47;2.00;;;;;;;;;;10255788;28;20278;-65
2021/06/23 17:50:28;;;;;;;4.80;2.10;;;;;;;;;;10253849;28;20050;-65
2021/06/23 17:55:30;;;;;;;3.97;1.48;;;;;;;;;;10238577;28;20168;-65
2021/06/23 18:00:29;;;;;;;5.70;2.00;;;;;;;;;;10248122;28;20294;-65
2021/06/23 18:05:27;;;;;;;3.80;1.38;;;;;;;;;;10254962;28;20056;-65
2021/06/23 18:10:24;;;;;;;;;;;;;;;;;;10245897;28;20242;-65
2021/06/23 18:15:22;;;;;;;3.43;1.50;;;;;;;;;;10243767;28;19914;-65
2021/06/23 18:20:19;;;;;;;;;;;;;;;;;;10255316;28;20030;-65
2021/06/23 18:25:17;;;;;;;3.97;1.40;;;;;;;;;;10260455;28;20373;-65
2021/06/23 18:30:14;;;;;;;;;;;;;;;;;;10256003;28;20112;-65
2021/06/23 18:35:12;;;;;;;5.57;1.85;;;;;;;;;;10253795;28;19920;-65
2021/06/23 18:40:09;;;;;;;;;;;;;;;;;;10250838;28;20122;-65
2021/06/23 18:45:08;;;;;;;3.65;1.30;;;;;;;;;;10248943;28;19921;-65
2021/06/23 18:50:07;;;;;;;5.93;1.90;;;;;;;;;;10264974;28;20042;-65
2021/06/23 18:55:05;;;;;;;3.15;1.40;;;;;;;;;;10237003;28;20038;-65
2021/06/23 19:00:04;;;;;;;3.60;1.55;;;;;;;;;;10263669;28;20559;-65
2021/06/23 19:05:03;;;;;;;4.35;1.42;;;;;;;;;;10254988;28;20048;-65
2021/06/23 19:10:01;;;;;;;3.38;1.45;;;;;;;;;;10247894;28;20491;-65
2021/06/23 19:14:58;;;;;;;5.63;1.57;;;;;;;;;;10245891;28;20419;-65
2021/06/23 19:19:56;;;;;;;3.50;1.30;;;;;;;;;;10239994;28;20499;-65
2021/06/23 19:24:53;;;;;;;5.30;1.17;;;;;;;;;;10230268;28;20034;-65
2021/06/23 19:29:51;;;;;;;3.17;1.30;;;;;;;;;;10238687;28;20041;-65
2021/06/23 19:34:48;;;;;;;2.67;1.38;;;;;;;;;;10237039;28;20374;-65
2021/06/23 19:39:46;;;;;;;3.78;1.13;;;;;;;;;;10239244;28;20031;-65
2021/06/23 19:44:46;;;;;;;3.00;1.38;;;;;;;;;;10229529;28;20485;-65
2021/06/23 19:49:44;;;;;;;2.97;1.48;;;;;;;;;;10233915;28;20053;-65
2021/06/23 19:54:42;;;;;;;2.00;1.77;;;;;;;;;;10241828;28;20022;-64
2021/06/23 19:59:39;;;;;;;4.90;1.60;;;;;;;;;;10225463;28;20496;-65
2021/06/23 20:04:37;;;;;;;2.40;1.10;;;;;;;;;;10230623;28;20041;-65
2021/06/23 20:09:34;;;;;;;2.67;1.10;;;;;;;;;;10241209;28;20783;-65
2021/06/23 20:14:32;;;;;;;4.67;1.33;;;;;;;;;;10240609;28;20045;-65
2021/06/23 20:19:29;;;;;;;3.87;1.50;;;;;;;;;;10233922;28;20495;-65
2021/06/23 20:24:27;;;;;;;3.37;1.43;;;;;;;;;;10231229;28;20128;-64
2021/06/23 20:29:24;;;;;;;3.33;1.30;;;;;;;;;;10231538;28;20069;-64
2021/06/23 20:34:22;;;;;;;2.47;1.17;;;;;;;;;;10234241;28;20068;-65
2021/06/23 20:39:19;;;;;;;3.53;1.33;;;;;;;;;;10234858;28;20048;-64
2021/06/23 20:44:16;;;;;;;2.20;1.40;;;;;;;;;;10245961;28;20045;-67
2021/06/23 20:49:14;;;;;;;4.47;1.50;;;;;;;;;;10239415;28;20454;-65
2021/06/23 20:54:15;;;;;;;3.10;1.03;;;;;;;;;;10230025;28;20046;-64
2021/06/23 20:59:13;;;;;;;2.78;1.50;;;;;;;;;;10239486;28;20042;-64
2021/06/23 21:04:10;;;;;;;2.90;1.20;;;;;;;;;;10238303;28;20045;-65
2021/06/23 21:09:07;;;;;;;1.37;1.23;;;;;;;;;;10243033;28;20033;-64
2021/06/23 21:14:21;;;;;;;3.00;1.60;;;;;;;;;;10252402;28;20074;-64
2021/06/23 21:19:28;;;;;;;3.05;1.30;;;;;;;;;;10242993;28;20135;-64
2021/06/23 21:24:39;;;;;;;2.33;1.33;;;;;;;;;;10239707;28;20495;-65
2021/06/23 21:29:41;;;;;;;2.38;1.25;;;;;;;;;;10231371;28;20131;-64
2021/06/23 21:34:39;;;;;;;2.40;1.15;;;;;;;;;;10248958;28;20041;-64
2021/06/23 21:39:36;;;;;;;1.40;1.25;;;;;;;;;;10239453;28;20459;-65
2021/06/23 21:44:34;;;;;;;2.27;1.40;;;;;;;;;;10244909;28;20149;-64
2021/06/23 21:49:33;;;;;;;3.97;1.43;;;;;;;;;;10242226;28;20034;-64
2021/06/23 21:54:32;;;;;;;4.20;1.40;;;;;;;;;;10266372;28;20312;-64
2021/06/23 21:59:33;;;;;;;1.75;1.23;;;;;;;;;;10255730;28;20271;-65
2021/06/23 22:04:30;;;;;;;1.60;1.00;;;;;;;;;;10240510;28;20046;-64
2021/06/23 22:09:28;;;;;;;2.67;1.30;;;;;;;;;;10233574;28;20046;-64
2021/06/23 22:14:25;;;;;;;2.63;1.10;;;;;;;;;;10235341;28;20356;-64
2021/06/23 22:19:23;;;;;;;2.63;1.23;;;;;;;;;;10236170;28;20068;-63
2021/06/23 22:24:22;;;;;;;3.57;1.10;;;;;;;;;;10233013;28;20030;-65
2021/06/23 22:29:19;;;;;;;3.30;1.20;;;;;;;;;;10237818;28;20122;-64
2021/06/23 22:34:17;;;;;;;2.57;1.10;;;;;;;;;;10241282;28;20077;-64
2021/06/23 22:39:18;;;;;;;2.63;1.33;;;;;;;;;;10226766;28;20058;-64
2021/06/23 22:44:17;;;;;;;2.45;1.50;;;;;;;;;;10247668;28;20034;-65
2021/06/23 22:49:22;;;;;;;2.45;1.40;;;;;;;;;;10242890;28;20033;-64
2021/06/23 22:54:27;;;;;;;2.72;1.40;;;;;;;;;;10228406;28;20092;-65
2021/06/23 22:59:25;;;;;;;1.80;1.40;;;;;;;;;;10245223;28;20500;-65
2021/06/23 23:04:24;;;;;;;2.08;1.20;;;;;;;;;;10251891;28;20054;-64
2021/06/23 23:09:21;;;;;;;1.48;1.10;;;;;;;;;;10262500;28;20504;-65
2021/06/23 23:14:20;;;;;;;2.20;1.20;;;;;;;;;;10252580;28;20381;-65
2021/06/23 23:19:18;;;;;;;1.65;1.52;;;;;;;;;;10247047;28;20125;-64
2021/06/23 23:24:16;;;;;;;1.47;1.37;;;;;;;;;;10229278;28;20122;-64
2021/06/23 23:29:13;;;;;;;1.75;1.52;;;;;;;;;;10233101;28;20053;-64
2021/06/23 23:34:11;;;;;;;1.93;1.10;;;;;;;;;;10225135;28;20061;-64
2021/06/23 23:39:08;;;;;;;3.73;1.57;;;;;;;;;;10253982;28;20026;-64
2021/06/23 23:44:06;;;;;;;2.97;1.53;;;;;;;;;;10246778;28;20029;-65
2021/06/23 23:49:04;;;;;;;1.37;1.20;;;;;;;;;;10245937;28;20030;-64
2021/06/23 23:54:01;;;;;;;2.50;1.40;;;;;;;;;;10254452;28;20027;-64
2021/06/23 23:58:59;;;;;;;1.63;1.37;;;;;;;;;;10242784;28;20034;-64
